Time;durP1;ratioP1;P1;durP2;ratioP2;P2;SDS_P1;SDS_P2;PMS_P1;PMS_P2;Temp;Humidity;BMP_temperature;BMP_pressure;BME280_temperature;BME280_humidity;BME280_pressure;Samples;Min_cycle;Max_cycle;Signal;HPM_P1;HPM_P2
2022/07/19 00:02:05;;;;;;;;;;;;;;;25.79;52.92;102010.44;5063906;28;19946;-83
2022/07/19 00:04:30;;;;;;;;;;;;;;;25.77;53.32;102015.75;5087751;28;19920;-83
2022/07/19 00:06:56;;;;;;;;;;;;;;;25.80;53.19;102013.13;5065421;28;19913;-83
2022/07/19 00:09:22;;;;;;;;;;;;;;;25.80;53.19;102005.09;5065972;28;19920;-83
2022/07/19 00:11:48;;;;;;;;;;;;;;;25.79;53.11;102013.09;5091486;28;19919;-81
2022/07/19 00:14:14;;;;;;;;;;;;;;;25.79;53.15;102007.75;5059379;28;19912;-82
2022/07/19 00:16:39;;;;;;;;;;;;;;;25.77;52.92;102007.72;5064386;28;20454;-83
2022/07/19 00:19:05;;;;;;;;;;;;;;;25.77;53.19;102006.84;5101462;28;20369;-82
2022/07/19 00:21:31;;;;;;;;;;;;;;;25.76;53.20;102005.03;5053011;28;19943;-84
2022/07/19 00:23:56;;;;;;;;;;;;;;;25.75;53.19;101998.78;5064206;28;19913;-84
2022/07/19 00:26:21;;;;;;;;;;;;;;;25.77;53.01;102007.72;5068225;28;19920;-84
2022/07/19 00:28:47;;;;;;;;;;;;;;;25.74;53.23;102002.34;5068666;28;19912;-84
2022/07/19 00:31:12;;;;;;;;;;;;;;;25.75;52.74;101996.09;5071700;28;19920;-84
2022/07/19 00:33:38;;;;;;;;;;;;;;;25.74;52.95;101990.75;5091750;28;19912;-83
2022/07/19 00:36:03;;;;;;;;;;;;;;;25.74;53.39;101996.13;5074001;28;20337;-84
2022/07/19 00:38:29;;;;;;;;;;;;;;;25.75;53.01;101984.50;5055336;28;19912;-82
2022/07/19 00:40:54;;;;;;;;;;;;;;;25.74;53.06;101997.00;5090571;28;20396;-83
2022/07/19 00:43:20;;;;;;;;;;;;;;;25.72;53.05;101992.53;5065166;28;19912;-82
2022/07/19 00:45:45;;;;;;;;;;;;;;;25.71;53.11;101990.72;5070250;28;19912;-82
2022/07/19 00:48:10;;;;;;;;;;;;;;;25.70;52.92;101986.25;5085269;28;20308;-82
2022/07/19 00:50:36;;;;;;;;;;;;;;;25.67;53.01;101984.41;5068214;28;19912;-82
2022/07/19 00:53:04;;;;;;;;;;;;;;;25.70;53.09;101988.94;5074164;28;19912;-83
2022/07/19 00:55:30;;;;;;;;;;;;;;;25.71;53.05;101985.34;5074409;28;20011;-83
2022/07/19 00:57:56;;;;;;;;;;;;;;;25.67;52.93;101987.09;5074510;28;20381;-83
2022/07/19 01:00:22;;;;;;;;;;;;;;;25.66;52.67;101981.75;5092488;28;20003;-83
2022/07/19 01:02:47;;;;;;;;;;;;;;;25.65;52.93;101979.94;5078192;28;20401;-83
2022/07/19 01:05:13;;;;;;;;;;;;;;;25.64;52.79;101978.16;5092418;28;19958;-81
2022/07/19 01:07:41;;;;;;;;;;;;;;;25.66;52.64;101977.28;5078543;28;19913;-83
2022/07/19 01:10:08;;;;;;;;;;;;;;;25.65;53.08;101975.47;5054557;28;19920;-82
2022/07/19 01:12:34;;;;;;;;;;;;;;;25.64;52.75;101970.13;5088027;28;19912;-82
2022/07/19 01:14:59;;;;;;;;;;;;;;;25.64;52.93;101970.13;5088073;28;19913;-83
2022/07/19 01:17:25;;;;;;;;;;;;;;;25.61;52.86;101970.97;5058662;28;19916;-83
2022/07/19 01:19:50;;;;;;;;;;;;;;;25.63;52.85;101971.00;5057829;28;20408;-82
2022/07/19 01:22:16;;;;;;;;;;;;;;;25.60;53.02;101971.88;5064714;28;19919;-84
2022/07/19 01:24:41;;;;;;;;;;;;;;;25.60;52.77;101970.09;5086450;28;19959;-83
2022/07/19 01:27:07;;;;;;;;;;;;;;;25.59;53.06;101964.75;5064364;28;20308;-85
2022/07/19 01:29:35;;;;;;;;;;;;;;;25.60;53.13;101969.19;5091454;28;20457;-84
2022/07/19 01:32:01;;;;;;;;;;;;;;;25.57;53.15;101964.72;5091725;28;19916;-83
2022/07/19 01:34:26;;;;;;;;;;;;;;;25.57;52.91;101964.72;5073684;28;20381;-82
2022/07/19 01:36:52;;;;;;;;;;;;;;;25.57;52.97;101967.38;5079569;28;19912;-82
2022/07/19 01:39:17;;;;;;;;;;;;;;;25.54;53.03;101975.34;5055492;28;19912;-82
2022/07/19 01:41:42;;;;;;;;;;;;;;;25.55;53.19;101968.25;5091869;28;19923;-82
2022/07/19 01:44:08;;;;;;;;;;;;;;;25.54;53.09;101961.09;5091554;28;19916;-82
2022/07/19 01:46:34;;;;;;;;;;;;;;;25.54;52.94;101962.00;5092012;28;19947;-82
2022/07/19 01:49:00;;;;;;;;;;;;;;;25.47;53.31;101967.28;5077387;28;19913;-81
2022/07/19 01:51:25;;;;;;;;;;;;;;;25.47;53.27;101969.94;5091840;28;19919;-82
2022/07/19 01:53:51;;;;;;;;;;;;;;;25.49;52.97;101973.53;5073839;28;19912;-82
2022/07/19 01:56:16;;;;;;;;;;;;;;;25.49;52.91;101978.88;5078863;28;19913;-81
2022/07/19 01:58:41;;;;;;;;;;;;;;;25.48;53.03;101967.25;5071481;28;19912;-82
2022/07/19 02:01:07;;;;;;;;;;;;;;;25.46;52.81;101966.34;5074868;28;20400;-83
2022/07/19 02:03:32;;;;;;;;;;;;;;;25.47;52.70;101965.47;5089591;28;19912;-83
2022/07/19 02:05:58;;;;;;;;;;;;;;;25.46;52.98;101962.78;5071485;28;19969;-83
2022/07/19 02:08:24;;;;;;;;;;;;;;;25.45;52.88;101969.03;5101245;28;19981;-82
2022/07/19 02:10:50;;;;;;;;;;;;;;;25.43;53.04;101963.66;5085394;28;20014;-84
2022/07/19 02:13:16;;;;;;;;;;;;;;;25.43;53.23;101968.09;5071469;28;20011;-83
2022/07/19 02:15:41;;;;;;;;;;;;;;;25.42;52.92;101958.28;5071589;28;20389;-83
2022/07/19 02:18:06;;;;;;;;;;;;;;;25.44;52.77;101953.84;5091560;28;20423;-83
2022/07/19 02:20:32;;;;;;;;;;;;;;;25.37;53.08;101959.13;5073593;28;19916;-84
2022/07/19 02:22:58;;;;;;;;;;;;;;;25.39;53.00;101960.03;5084310;28;19956;-83
2022/07/19 02:25:23;;;;;;;;;;;;;;;25.41;53.22;101957.38;5071411;28;20278;-83
2022/07/19 02:27:49;;;;;;;;;;;;;;;25.37;53.21;101961.78;5077263;28;19919;-83
2022/07/19 02:30:16;;;;;;;;;;;;;;;25.36;53.22;101962.69;5062349;28;19928;-83
2022/07/19 02:32:42;;;;;;;;;;;;;;;25.32;53.48;101960.84;5088785;28;20439;-83
2022/07/19 02:35:08;;;;;;;;;;;;;;;25.34;53.15;101961.78;5091435;28;19920;-83
2022/07/19 02:37:33;;;;;;;;;;;;;;;25.34;53.07;101967.13;5073471;28;19912;-83
2022/07/19 02:39:59;;;;;;;;;;;;;;;25.35;53.06;101960.88;5092415;28;20300;-82
2022/07/19 02:42:24;;;;;;;;;;;;;;;25.32;53.31;101959.97;5081692;28;20445;-82
2022/07/19 02:44:49;;;;;;;;;;;;;;;25.30;52.91;101956.38;5094537;28;19916;-82
2022/07/19 02:47:15;;;;;;;;;;;;;;;25.32;53.31;101959.97;5095202;28;20359;-82
2022/07/19 02:49:40;;;;;;;;;;;;;;;25.29;53.18;101959.91;5091402;28;20355;-83
2022/07/19 02:52:06;;;;;;;;;;;;;;;25.28;53.02;101969.72;5074734;28;20451;-83
2022/07/19 02:54:31;;;;;;;;;;;;;;;25.28;53.17;101960.81;5057934;28;19913;-82
2022/07/19 02:56:57;;;;;;;;;;;;;;;25.30;53.40;101964.41;5076916;28;20003;-83
2022/07/19 02:59:22;;;;;;;;;;;;;;;25.26;52.90;101960.78;5095045;28;19919;-84
2022/07/19 03:01:47;;;;;;;;;;;;;;;25.25;53.12;101961.66;5094418;28;19982;-83
2022/07/19 03:04:13;;;;;;;;;;;;;;;25.25;53.17;101967.03;5066492;28;20354;-83
2022/07/19 03:06:38;;;;;;;;;;;;;;;25.22;52.97;101963.41;5090548;28;20309;-83
2022/07/19 03:09:04;;;;;;;;;;;;;;;25.23;53.13;101959.81;5076541;28;20309;-83
2022/07/19 03:11:29;;;;;;;;;;;;;;;25.25;52.92;101959.00;5080573;28;20022;-83
2022/07/19 03:13:55;;;;;;;;;;;;;;;25.18;53.42;101957.06;5089584;28;20286;-83
2022/07/19 03:16:21;;;;;;;;;;;;;;;25.21;53.24;101959.84;5067434;28;20009;-83
2022/07/19 03:18:46;;;;;;;;;;;;;;;25.23;53.02;101954.47;5087339;28;20078;-83
2022/07/19 03:21:12;;;;;;;;;;;;;;;25.16;53.21;101962.38;5066437;28;20449;-84
2022/07/19 03:23:37;;;;;;;;;;;;;;;25.15;53.01;101957.94;5042409;28;19912;-83
2022/07/19 03:26:03;;;;;;;;;;;;;;;25.14;52.99;101963.25;5067840;28;19947;-83
2022/07/19 03:28:29;;;;;;;;;;;;;;;25.13;53.38;101965.03;5085678;28;19918;-83
2022/07/19 03:30:54;;;;;;;;;;;;;;;25.12;53.39;101962.34;5070926;28;20401;-83
2022/07/19 03:33:20;;;;;;;;;;;;;;;25.13;52.99;101965.03;5091753;28;19919;-83
2022/07/19 03:35:45;;;;;;;;;;;;;;;25.13;53.17;101965.03;5087070;28;19931;-83
2022/07/19 03:38:11;;;;;;;;;;;;;;;25.13;53.34;101967.72;5089453;28;19912;-83
2022/07/19 03:40:36;;;;;;;;;;;;;;;25.10;53.09;101970.31;5100531;28;19916;-83
2022/07/19 03:43:02;;;;;;;;;;;;;;;25.07;53.38;101959.59;5090189;28;19969;-83
2022/07/19 03:45:27;;;;;;;;;;;;;;;25.09;53.49;101963.19;5073006;28;19919;-83
2022/07/19 03:47:52;;;;;;;;;;;;;;;25.08;53.49;101965.84;5088369;28;19947;-83
2022/07/19 03:50:18;;;;;;;;;;;;;;;25.07;53.27;101961.38;5091086;28;19950;-83
2022/07/19 03:52:43;;;;;;;;;;;;;;;25.06;53.27;101967.59;5057632;28;20386;-84
2022/07/19 03:55:09;;;;;;;;;;;;;;;25.05;53.22;101969.38;5058791;28;19943;-83
2022/07/19 03:57:34;;;;;;;;;;;;;;;25.06;52.85;101972.94;5071150;28;19916;-83
2022/07/19 04:00:00;;;;;;;;;;;;;;;25.02;53.37;101974.69;5054615;28;19913;-83
2022/07/19 04:02:25;;;;;;;;;;;;;;;25.06;53.16;101978.28;5054946;28;19922;-84
2022/07/19 04:04:50;;;;;;;;;;;;;;;25.02;53.13;101977.38;5075292;28;19912;-84
2022/07/19 04:07:16;;;;;;;;;;;;;;;25.00;53.16;101971.09;5055080;28;19916;-85
2022/07/19 04:09:41;;;;;;;;;;;;;;;24.97;53.36;101971.94;5071791;28;20008;-83
2022/07/19 04:12:07;;;;;;;;;;;;;;;24.99;53.34;101979.97;5076980;28;19920;-84
2022/07/19 04:14:32;;;;;;;;;;;;;;;24.99;53.27;101982.66;5054914;28;20420;-84
2022/07/19 04:16:58;;;;;;;;;;;;;;;24.97;53.28;101979.94;5084611;28;19920;-84
2022/07/19 04:19:23;;;;;;;;;;;;;;;24.97;53.48;101979.06;5072440;28;19912;-83
2022/07/19 04:21:49;;;;;;;;;;;;;;;24.95;53.67;101980.81;5092682;28;20030;-83
2022/07/19 04:24:14;;;;;;;;;;;;;;;24.96;53.27;101985.31;5059513;28;20369;-83
2022/07/19 04:26:39;;;;;;;;;;;;;;;24.96;53.41;101986.19;5076226;28;20282;-84
2022/07/19 04:29:05;;;;;;;;;;;;;;;24.97;53.32;101987.09;5078519;28;19924;-83
2022/07/19 04:31:30;;;;;;;;;;;;;;;24.96;53.36;101991.53;5076623;28;19959;-85
2022/07/19 04:33:56;;;;;;;;;;;;;;;24.93;53.44;101985.25;5075775;28;19935;-82
2022/07/19 04:36:21;;;;;;;;;;;;;;;24.94;53.25;102005.75;5078899;28;19912;-83
2022/07/19 04:38:46;;;;;;;;;;;;;;;24.94;53.48;101997.75;5075904;28;19947;-83
2022/07/19 04:41:12;;;;;;;;;;;;;;;24.92;53.19;101995.03;5078790;28;20400;-83
2022/07/19 04:43:37;;;;;;;;;;;;;;;24.92;53.47;101999.50;5076022;28;20377;-83
2022/07/19 04:46:03;;;;;;;;;;;;;;;24.90;53.74;101996.78;5077387;28;20435;-83
2022/07/19 04:48:29;;;;;;;;;;;;;;;24.92;53.55;101996.81;5059633;28;19913;-83
2022/07/19 04:50:54;;;;;;;;;;;;;;;24.92;53.43;102002.16;5076694;28;20400;-82
2022/07/19 04:53:22;;;;;;;;;;;;;;;24.90;53.55;101996.78;5051578;28;19920;-82
2022/07/19 04:55:51;;;;;;;;;;;;;;;24.90;53.68;101998.56;5058965;28;20392;-84
2022/07/19 04:58:16;;;;;;;;;;;;;;;24.90;53.54;101990.56;5053340;28;20006;-84
2022/07/19 05:00:42;;;;;;;;;;;;;;;24.89;53.62;101996.75;5058526;28;20000;-83
2022/07/19 05:03:07;;;;;;;;;;;;;;;24.89;53.78;102000.34;5053572;28;19935;-82
2022/07/19 05:05:32;;;;;;;;;;;;;;;24.86;54.09;101997.63;5079119;28;19916;-83
2022/07/19 05:07:58;;;;;;;;;;;;;;;24.81;53.99;101995.75;5074389;28;20369;-83
2022/07/19 05:10:23;;;;;;;;;;;;;;;24.82;54.01;102006.47;5089064;28;19982;-82
2022/07/19 05:12:49;;;;;;;;;;;;;;;24.82;53.78;101997.56;5087304;28;20420;-82
2022/07/19 05:15:14;;;;;;;;;;;;;;;24.81;54.21;102006.44;5068226;28;19916;-83
2022/07/19 05:17:40;;;;;;;;;;;;;;;24.81;54.11;101988.66;5086230;28;19923;-83
2022/07/19 05:20:06;;;;;;;;;;;;;;;24.85;54.37;101997.59;5081796;28;19920;-83
2022/07/19 05:22:32;;;;;;;;;;;;;;;24.83;54.16;101997.59;5084742;28;19912;-82
2022/07/19 05:24:57;;;;;;;;;;;;;;;24.78;54.59;102001.94;5057617;28;19919;-84
2022/07/19 05:27:23;;;;;;;;;;;;;;;24.67;54.87;102003.56;5064868;28;19913;-81
2022/07/19 05:29:48;;;;;;;;;;;;;;;24.61;54.57;102000.78;5058386;28;20435;-80
2022/07/19 05:32:14;;;;;;;;;;;;;;;24.66;54.23;101992.00;5090599;28;19944;-81
2022/07/19 05:34:42;;;;;;;;;;;;;;;24.58;54.44;101994.53;5081400;28;19963;-81
2022/07/19 05:37:08;;;;;;;;;;;;;;;24.62;54.79;102002.56;5079062;28;19920;-81
2022/07/19 05:39:34;;;;;;;;;;;;;;;24.65;54.45;102000.88;5063103;28;20305;-81
2022/07/19 05:42:01;;;;;;;;;;;;;;;24.62;54.62;101997.22;5083290;28;19916;-81
2022/07/19 05:44:27;;;;;;;;;;;;;;;24.57;54.53;101998.09;5083637;28;19916;-81
2022/07/19 05:46:52;;;;;;;;;;;;;;;24.58;54.86;101999.88;5061410;28;19918;-81
2022/07/19 05:49:18;;;;;;;;;;;;;;;24.57;54.80;102003.44;5099323;28;19916;-80
2022/07/19 05:51:43;;;;;;;;;;;;;;;24.57;55.07;102000.75;5065485;28;19935;-79
2022/07/19 05:54:10;;;;;;;;;;;;;;;24.61;55.02;102004.34;5082261;28;20312;-80
2022/07/19 05:56:35;;;;;;;;;;;;;;;24.57;54.45;102003.44;5100507;28;19920;-79
2022/07/19 05:59:22;;;;;;;;;;;;;;;24.54;55.05;102000.69;5092572;28;20450;-80
2022/07/19 06:02:02;;;;;;;;;;;;;;;24.59;54.90;102011.44;5080770;28;19967;-80
2022/07/19 06:04:31;;;;;;;;;;;;;;;24.60;54.61;102007.03;5065184;28;20458;-80
2022/07/19 06:06:56;;;;;;;;;;;;;;;24.59;54.96;102016.78;5060961;28;19916;-80
2022/07/19 06:09:22;;;;;;;;;;;;;;;24.64;54.80;102009.75;5076239;28;19999;-82
2022/07/19 06:11:53;;;;;;;;;;;;;;;24.51;54.69;101991.72;5073139;28;19920;-81
2022/07/19 06:14:19;;;;;;;;;;;;;;;24.57;54.55;102007.84;5037536;28;20003;-80
2022/07/19 06:16:44;;;;;;;;;;;;;;;24.62;54.96;102007.91;5067706;28;20007;-81
2022/07/19 06:19:19;;;;;;;;;;;;;;;24.61;54.63;102008.81;5079974;28;19912;-81
2022/07/19 06:22:06;;;;;;;;;;;;;;;24.66;54.87;102009.75;5069007;28;19920;-80
2022/07/19 06:24:56;;;;;;;;;;;;;;;24.63;54.86;102009.72;5059894;28;19924;-82
2022/07/19 06:27:21;;;;;;;;;;;;;;;24.66;54.79;102016.03;5080655;28;20386;-81
2022/07/19 06:29:53;;;;;;;;;;;;;;;24.64;54.62;102015.09;5064584;28;19916;-82
2022/07/19 06:32:19;;;;;;;;;;;;;;;24.59;55.10;102016.78;5062169;28;19919;-81
2022/07/19 06:34:53;;;;;;;;;;;;;;;24.52;54.78;102007.78;5087119;28;19921;-81
2022/07/19 06:37:19;;;;;;;;;;;;;;;24.55;54.90;102009.59;5066339;28;20360;-81
2022/07/19 06:39:44;;;;;;;;;;;;;;;24.64;55.13;102007.09;5054282;28;19951;-80
2022/07/19 06:42:10;;;;;;;;;;;;;;;24.66;55.04;102021.38;5063465;28;19916;-82
2022/07/19 06:44:35;;;;;;;;;;;;;;;24.65;54.93;102008.88;5073235;28;20405;-81
2022/07/19 06:47:00;;;;;;;;;;;;;;;24.61;54.87;102011.47;5061818;28;19912;-82
2022/07/19 06:49:27;;;;;;;;;;;;;;;24.59;54.60;102011.44;5064885;28;19917;-81
2022/07/19 06:51:52;;;;;;;;;;;;;;;24.60;55.43;102013.25;5054921;28;19935;-80
2022/07/19 06:54:18;;;;;;;;;;;;;;;24.60;55.49;102013.25;5080715;28;20329;-81
2022/07/19 06:56:44;;;;;;;;;;;;;;;24.61;55.49;102014.16;5059380;28;20634;-81
2022/07/19 06:59:09;;;;;;;;;;;;;;;24.60;55.49;102013.25;5060919;28;19991;-82
2022/07/19 07:01:35;;;;;;;;;;;;;;;24.62;55.27;102010.59;5057487;28;20023;-81
2022/07/19 07:04:00;;;;;;;;;;;;;;;24.66;55.48;102016.03;5062995;28;20302;-82
2022/07/19 07:06:26;;;;;;;;;;;;;;;24.65;55.23;102016.00;5068164;28;20404;-80
2022/07/19 07:08:51;;;;;;;;;;;;;;;24.63;55.26;102015.06;5061030;28;20389;-80
2022/07/19 07:11:16;;;;;;;;;;;;;;;24.63;55.14;102018.63;5071190;28;20413;-80
2022/07/19 07:13:42;;;;;;;;;;;;;;;24.63;54.96;102021.31;5084956;28;19913;-80
2022/07/19 07:16:07;;;;;;;;;;;;;;;24.63;55.49;102021.31;5064760;28;19916;-81
2022/07/19 07:18:33;;;;;;;;;;;;;;;24.62;55.65;102023.94;5089845;28;19940;-80
2022/07/19 07:20:59;;;;;;;;;;;;;;;24.62;55.27;102016.84;5059587;28;19920;-80
2022/07/19 07:23:24;;;;;;;;;;;;;;;24.63;55.50;102015.06;5102753;28;20366;-81
2022/07/19 07:25:50;;;;;;;;;;;;;;;24.66;55.59;102023.13;5059211;28;19916;-80
2022/07/19 07:28:15;;;;;;;;;;;;;;;24.68;55.50;102019.63;5064586;28;19924;-80
2022/07/19 07:30:43;;;;;;;;;;;;;;;24.66;55.29;102017.78;5070273;28;20461;-80
2022/07/19 07:33:09;;;;;;;;;;;;;;;24.65;55.54;102022.22;5063968;28;19913;-80
2022/07/19 07:35:42;;;;;;;;;;;;;;;24.66;55.35;102021.38;5070537;28;19927;-81
2022/07/19 07:38:09;;;;;;;;;;;;;;;24.69;55.71;102020.53;5072296;28;20042;-80
2022/07/19 07:43:48;;;;;;;;;;;;;;;24.69;55.43;102036.53;5094168;28;19915;-80
2022/07/19 07:46:16;;;;;;;;;;;;;;;24.68;55.34;102026.72;5094146;28;20011;-81
2022/07/19 07:48:53;;;;;;;;;;;;;;;24.72;55.56;102025.91;5049272;28;20398;-81
2022/07/19 07:51:46;;;;;;;;;;;;;;;24.73;55.45;102023.25;5062163;28;19950;-81
2022/07/19 07:54:21;;;;;;;;;;;;;;;24.75;55.48;102028.63;5064701;28;20486;-81
2022/07/19 07:56:46;;;;;;;;;;;;;;;24.71;55.55;102022.34;5079486;28;19971;-80
2022/07/19 08:02:26;;;;;;;;;;;;;;;24.79;55.41;102025.13;5079627;28;19927;-81
2022/07/19 08:05:16;;;;;;;;;;;;;;;24.80;55.25;102026.91;5087276;28;20010;-81
2022/07/19 08:11:06;;;;;;;;;;;;;;;24.82;55.57;102026.94;5072568;28;20324;-80
2022/07/19 08:13:56;;;;;;;;;;;;;;;24.78;55.54;102029.56;5075594;28;19917;-80
2022/07/19 08:16:49;;;;;;;;;;;;;;;24.82;55.35;102029.63;5078869;28;20408;-80
2022/07/19 08:19:36;;;;;;;;;;;;;;;24.79;55.43;102027.81;5058576;28;19971;-80
2022/07/19 08:22:19;;;;;;;;;;;;;;;24.80;55.30;102026.91;5081225;28;19923;-82
2022/07/19 08:24:47;;;;;;;;;;;;;;;24.85;55.49;102029.66;5063474;28;19974;-80
2022/07/19 08:27:27;;;;;;;;;;;;;;;24.82;55.37;102029.63;5066592;28;20004;-81
2022/07/19 08:29:56;;;;;;;;;;;;;;;24.86;55.49;102026.13;5066884;28;19912;-80
2022/07/19 08:32:21;;;;;;;;;;;;;;;24.86;55.21;102031.47;5067131;28;19912;-81
2022/07/19 08:34:47;;;;;;;;;;;;;;;24.82;55.58;102034.97;5074910;28;19998;-81
2022/07/19 08:37:14;;;;;;;;;;;;;;;24.81;55.33;102025.13;5078418;28;19923;-81
2022/07/19 08:39:42;;;;;;;;;;;;;;;24.81;55.63;102034.06;5085654;28;19938;-81
2022/07/19 08:42:16;;;;;;;;;;;;;;;24.85;55.35;102032.31;5077371;28;19922;-82
2022/07/19 08:44:56;;;;;;;;;;;;;;;24.81;55.55;102028.72;5087387;28;20223;-82
2022/07/19 08:47:24;;;;;;;;;;;;;;;24.74;55.48;102025.06;5075892;28;19962;-81
2022/07/19 08:49:58;;;;;;;;;;;;;;;24.77;55.76;102019.75;5085468;28;19916;-81
2022/07/19 08:52:46;;;;;;;;;;;;;;;24.82;55.42;102025.16;5081243;28;20011;-82
2022/07/19 08:55:14;;;;;;;;;;;;;;;24.85;55.34;102025.22;5075166;28;19924;-81
2022/07/19 09:00:36;;;;;;;;;;;;;;;24.87;55.75;102027.91;5085607;28;19977;-79
2022/07/19 09:03:17;;;;;;;;;;;;;;;24.90;55.35;102023.50;5092390;28;20599;-80
2022/07/19 09:06:16;;;;;;;;;;;;;;;24.91;55.58;102025.31;5085228;28;19999;-79
2022/07/19 09:08:51;;;;;;;;;;;;;;;24.86;55.45;102021.66;5092309;28;19939;-80
2022/07/19 09:11:31;;;;;;;;;;;;;;;24.86;55.54;102015.44;5064694;28;19917;-81
2022/07/19 09:13:56;;;;;;;;;;;;;;;24.84;55.57;102025.19;5090087;28;19939;-81
2022/07/19 09:16:25;;;;;;;;;;;;;;;24.81;55.65;102019.78;5050891;28;20293;-79
2022/07/19 09:24:58;;;;;;;;;;;;;;;24.90;55.71;102018.16;5045976;28;20425;-82
2022/07/19 09:30:33;;;;;;;;;;;;;;;24.83;55.39;102010.94;5049553;28;20456;-81
2022/07/19 09:33:29;;;;;;;;;;;;;;;24.89;55.41;102020.81;5054938;28;19916;-81
2022/07/19 09:35:59;;;;;;;;;;;;;;;24.95;55.34;102013.78;5033507;28;19928;-79
2022/07/19 09:38:26;;;;;;;;;;;;;;;25.01;55.29;102010.31;5023581;28;19972;-79
2022/07/19 09:46:56;;;;;;;;;;;;;;;24.95;54.73;102015.56;5019969;28;20006;-81
2022/07/19 09:49:30;;;;;;;;;;;;;;;24.97;55.16;102016.47;5021226;28;20458;-81
2022/07/19 09:55:26;;;;;;;;;;;;;;;24.96;55.20;102010.25;5037699;28;19954;-80
2022/07/19 09:58:26;;;;;;;;;;;;;;;24.95;55.28;102005.75;5044870;28;20031;-79
2022/07/19 10:00:52;;;;;;;;;;;;;;;24.96;55.03;102006.69;5049875;28;19917;-81
2022/07/19 10:06:36;;;;;;;;;;;;;;;24.96;55.10;102006.69;5060686;28;19919;-81
2022/07/19 10:12:21;;;;;;;;;;;;;;;25.02;55.10;102006.78;5044267;28;19920;-81
2022/07/19 10:14:48;;;;;;;;;;;;;;;24.96;55.21;102007.56;5043832;28;20447;-81
2022/07/19 10:23:42;;;;;;;;;;;;;;;24.98;54.87;102003.16;5041679;28;19952;-81
2022/07/19 10:26:13;;;;;;;;;;;;;;;25.00;54.96;101997.84;5036703;28;19931;-80
2022/07/19 10:28:42;;;;;;;;;;;;;;;25.01;55.29;101988.03;5043838;28;19913;-80
2022/07/19 10:31:27;;;;;;;;;;;;;;;25.05;55.15;101987.19;5050630;28;20386;-80
2022/07/19 10:34:06;;;;;;;;;;;;;;;25.04;54.90;101991.66;5046340;28;20471;-81
2022/07/19 10:36:39;;;;;;;;;;;;;;;25.01;54.66;101993.38;5069335;28;19923;-80
2022/07/19 10:39:21;;;;;;;;;;;;;;;24.99;55.09;101988.00;5070388;28;20028;-80
2022/07/19 10:42:25;;;;;;;;;;;;;;;25.01;55.04;101983.56;5059366;28;19955;-79
2022/07/19 10:44:56;;;;;;;;;;;;;;;25.07;54.92;101983.66;5028765;28;19920;-81
2022/07/19 10:47:22;;;;;;;;;;;;;;;25.15;55.01;101975.75;5026224;28;20386;-81
2022/07/19 10:49:54;;;;;;;;;;;;;;;25.06;54.98;101973.88;5060349;28;20033;-80
2022/07/19 10:52:28;;;;;;;;;;;;;;;25.11;54.94;101979.25;5057378;28;20281;-80
2022/07/19 10:55:12;;;;;;;;;;;;;;;25.08;54.94;101974.78;5093993;28;19981;-82
2022/07/19 10:57:38;;;;;;;;;;;;;;;25.13;54.96;101962.38;5079921;28;19970;-80
2022/07/19 11:00:18;;;;;;;;;;;;;;;25.08;54.44;101966.75;5069984;28;20018;-80
2022/07/19 11:02:44;;;;;;;;;;;;;;;25.10;54.63;101970.31;5099912;28;20397;-80
2022/07/19 11:05:28;;;;;;;;;;;;;;;25.12;54.57;101957.88;5085236;28;19917;-79
2022/07/19 11:07:54;;;;;;;;;;;;;;;25.12;54.64;101960.53;5075004;28;19923;-80
2022/07/19 11:10:26;;;;;;;;;;;;;;;25.11;55.09;101965.91;5090904;28;19919;-80
2022/07/19 11:12:52;;;;;;;;;;;;;;;25.15;54.78;101962.38;5079966;28;20016;-80
2022/07/19 11:15:17;;;;;;;;;;;;;;;25.14;54.80;101958.78;5086692;28;19956;-80
2022/07/19 11:17:50;;;;;;;;;;;;;;;25.11;54.16;101961.44;5074399;28;19949;-79
2022/07/19 11:20:16;;;;;;;;;;;;;;;25.14;54.65;101956.13;5089834;28;20122;-79
2022/07/19 11:22:46;;;;;;;;;;;;;;;25.17;54.83;101955.28;5074683;28;20039;-80
2022/07/19 11:25:12;;;;;;;;;;;;;;;25.14;54.41;101950.78;5091258;28;19935;-80
2022/07/19 11:27:41;;;;;;;;;;;;;;;25.15;53.63;101949.03;5079230;28;19924;-80
2022/07/19 11:30:07;;;;;;;;;;;;;;;25.19;54.46;101945.50;5090313;28;20348;-80
2022/07/19 11:32:33;;;;;;;;;;;;;;;25.19;54.72;101946.41;5066336;28;20495;-80
2022/07/19 11:34:59;;;;;;;;;;;;;;;25.18;55.19;101946.38;5097041;28;19942;-79
2022/07/19 11:37:28;;;;;;;;;;;;;;;25.22;55.10;101947.34;5083865;28;19919;-79
2022/07/19 11:39:54;;;;;;;;;;;;;;;25.22;55.14;101948.25;5074338;28;19947;-79
2022/07/19 11:42:28;;;;;;;;;;;;;;;25.21;55.46;101946.47;5068054;28;20001;-78
2022/07/19 11:44:54;;;;;;;;;;;;;;;25.22;55.41;101942.00;5096125;28;19916;-80
2022/07/19 11:47:20;;;;;;;;;;;;;;;25.23;55.38;101939.38;5088369;28;19917;-80
2022/07/19 11:49:46;;;;;;;;;;;;;;;25.29;55.27;101942.06;5083092;28;20337;-79
2022/07/19 11:52:11;;;;;;;;;;;;;;;25.33;55.28;101946.59;5085353;28;20001;-80
2022/07/19 11:54:38;;;;;;;;;;;;;;;25.28;55.78;101952.78;5060268;28;19935;-80
2022/07/19 11:57:05;;;;;;;;;;;;;;;25.31;55.74;101940.31;5088409;28;20338;-81
2022/07/19 11:59:30;;;;;;;;;;;;;;;25.28;56.05;101939.41;5086437;28;19916;-79
2022/07/19 12:01:57;;;;;;;;;;;;;;;25.26;55.89;101943.84;5085541;28;20094;-80
2022/07/19 12:04:23;;;;;;;;;;;;;;;25.33;55.71;101945.69;5060845;28;19920;-80
2022/07/19 12:06:50;;;;;;;;;;;;;;;25.32;55.43;101949.28;5074917;28;20387;-80
2022/07/19 12:09:16;;;;;;;;;;;;;;;25.30;55.87;101946.56;5075483;28;20442;-80
2022/07/19 12:11:43;;;;;;;;;;;;;;;25.31;55.68;101939.44;5094533;28;20022;-79
2022/07/19 12:14:19;;;;;;;;;;;;;;;25.32;55.61;101943.91;5080504;28;19956;-80
2022/07/19 12:16:44;;;;;;;;;;;;;;;25.33;55.62;101945.69;5077450;28;19962;-80
2022/07/19 12:19:10;;;;;;;;;;;;;;;25.36;56.16;101937.72;5087084;28;19963;-81
2022/07/19 12:21:37;;;;;;;;;;;;;;;25.37;55.88;101936.84;5085815;28;19920;-80
2022/07/19 12:24:19;;;;;;;;;;;;;;;25.40;55.97;101931.53;5057720;28;19912;-81
2022/07/19 12:27:00;;;;;;;;;;;;;;;25.39;56.02;101932.41;5071718;28;19923;-80
2022/07/19 12:29:35;;;;;;;;;;;;;;;25.39;56.23;101932.41;5072028;28;19918;-81
2022/07/19 12:32:01;;;;;;;;;;;;;;;25.42;55.84;101934.22;5067697;28;19916;-81
2022/07/19 12:34:26;;;;;;;;;;;;;;;25.41;55.77;101936.00;5089382;28;19924;-80
2022/07/19 12:36:52;;;;;;;;;;;;;;;25.46;55.56;101928.91;5070628;28;20585;-80
2022/07/19 12:39:22;;;;;;;;;;;;;;;25.42;55.88;101931.53;5075260;28;19971;-81
2022/07/19 12:41:55;;;;;;;;;;;;;;;25.43;56.03;101922.66;5074954;28;19923;-80
2022/07/19 12:44:20;;;;;;;;;;;;;;;25.41;55.98;101927.97;5082210;28;20030;-80
2022/07/19 12:46:45;;;;;;;;;;;;;;;25.46;55.98;101917.31;5072569;28;19916;-79
2022/07/19 12:49:11;;;;;;;;;;;;;;;25.42;55.88;101919.09;5085718;28;20007;-80
2022/07/19 12:51:42;;;;;;;;;;;;;;;25.43;55.91;101918.19;5055663;28;20324;-80
2022/07/19 12:54:14;;;;;;;;;;;;;;;25.46;55.72;101915.53;5073838;28;19912;-79
2022/07/19 12:56:42;;;;;;;;;;;;;;;25.46;55.98;101910.19;5074444;28;19943;-79
2022/07/19 13:01:51;;;;;;;;;;;;;;;25.41;55.96;101908.34;5083350;28;19929;-81
2022/07/19 13:04:34;;;;;;;;;;;;;;;25.46;55.86;101902.16;5085158;28;20356;-80
2022/07/19 13:07:02;;;;;;;;;;;;;;;25.48;55.99;101904.84;5069617;28;19919;-80
2022/07/19 13:09:57;;;;;;;;;;;;;;;25.45;56.18;101908.41;5048869;28;20340;-80
2022/07/19 13:12:35;;;;;;;;;;;;;;;25.47;56.25;101908.44;5090414;28;19924;-80
2022/07/19 13:15:00;;;;;;;;;;;;;;;25.49;56.24;101909.34;5089181;28;19916;-80
2022/07/19 13:17:46;;;;;;;;;;;;;;;25.48;56.34;101915.56;5057985;28;19924;-80
2022/07/19 13:20:29;;;;;;;;;;;;;;;25.46;56.24;101912.84;5057159;28;19924;-79
2022/07/19 13:23:29;;;;;;;;;;;;;;;;;;;;;
2022/07/19 13:25:58;;;;;;;;;;;;;;;25.48;56.42;101910.19;5080694;28;19920;-80
2022/07/19 13:28:37;;;;;;;;;;;;;;;25.50;56.22;101895.97;5081866;28;19965;-79
2022/07/19 13:31:05;;;;;;;;;;;;;;;25.46;56.52;101899.47;5083908;28;19951;-80
2022/07/19 13:33:46;;;;;;;;;;;;;;;25.49;56.19;101896.84;5088383;28;19912;-79